Shoreham, Vermont
Current Conditions -  °F | °C
As of 5:55 PM on Friday 28 Nov 2014 (Local Time) from K6B0 Reporting Station
Broken Clouds Broken Clouds  
Wind Chill: 22°   Ceiling: 5000
Heat Index: 22°   Visibility: 10mi
Dew Point: 16°   Wind: 0mph
Humidity: 77%   Direction: NA
Pressure: 30.14"   Gusts: NA
Location:  43.89°N, 73.31°W
Report Text: K6B0 282255Z AUTO 00000KT 10SM BKN050 M05/M09 A3014 RMK AO2 T10551090
Loading
Personal Weather Stations






























Interactive Weather Map New forecast layout! Learn more

10-Day Weather Forecast

Advertisements
Track Severe Weather on mobile